Accueil
METAR-TAF:

METAR-TAF

Aéroports :

Aéroport de Cherbourg - Maupertus

Cherbourg, France

latitude: 49-39N, longitude: 001-28W, altitude: 138 m

Observation

Le bulletin a été fait il y a 36 minutes, à 18:00 UTC
Vent 10 kt de est
Température 10°C
Humidité 57%
Pression 1016 hPa
Visibilité 10 km ou plus
pas de nuages en-dessous de 1500 mètres et pas de cumulonimbus.

METAR: LFRC 071800Z AUTO 09010KT CAVOK 10/02 Q1016

Heure: 20:36 (18:36 UTC)

Prévision

Le bulletin a été fait il y a 4 heures et 36 minutes, à 14:00 UTC
Prévision valable du 07 à 15 UTC au 07 à 24 UTC
Vent 5 kt de direction variable
Visibilité 10 km ou plus
Nuages épars à une hauteur de 3500 ft
Evoluant progressivement
du 07 à 19 UTC au 07 à 21 UTC
Vent 10 kt de est/sud-est

TAF: LFRC 071400Z 0715/0724 VRB05KT 9999 SCT035 BECMG 0719/0721 12010KT

Observations et prévisions météorologiques de plus de 4000 aéroports (messages METAR et TAF).

Les stations disponibles sont représentées par des disques jaunes et rouges sur la carte.

Passer la souris dessus pour voir le nom de la station.

Cliquer dessus pour voir les observations et prévisions météorologiques.

Pour changer de carte: cliquez sur les boutons verts avec une croix noire pour zoomer, sur le bouton vert avec un tiret pour effectuer un zoom arrière, ou sur les flèches vertes pour les cartes adjacentes.


METAR-TAF: